This is the latest recevied weather packets stored in our database for station/object IZ1UKX-13. If no packets are shown the sender has not sent any weather packets the latest 10 day(s).
| Time | Temp. | Humidity | Pressure | Rain* | Wind** | Luminosity | Snow |
|---|---|---|---|---|---|---|---|
| 1787395899 | 31.67° C | 42% | 1021 hPa | 0 mm | - | 0 W/m² | - |
| 1787395599 | 31.11° C | 43% | 1021 hPa | 0 mm | - | 0 W/m² | - |
| 1787395299 | 31.67° C | 42% | 1021 hPa | 0 mm | - | 0 W/m² | - |
| 1787395000 | 31.67° C | 42% | 1021 hPa | 0 mm | - | 0 W/m² | - |
| 1787394700 | 31.11° C | 43% | 1021 hPa | 0 mm | - | 0 W/m² | - |
| 1787394400 | 30.56° C | 45% | 1021 hPa | 0 mm | - | 0 W/m² | - |
| 1787394100 | 30.56° C | 44% | 1021 hPa | 0 mm | - | 0 W/m² | - |
| 1787393799 | 31.11° C | 44% | 1021 hPa | 0 mm | - | 0 W/m² | - |
| 1787393499 | 31.11° C | 44% | 1021 hPa | 0 mm | - | 0 W/m² | - |
| 1787393199 | 30.56° C | 44% | 1021 hPa | 0 mm | - | 0 W/m² | - |
| 1787392899 | 30.56° C | 44% | 1021 hPa | 0 mm | - | 0 W/m² | - |
| 1787392599 | 30.56° C | 44% | 1021 hPa | 0 mm | - | 0 W/m² | - |
| 1787392299 | 30.56° C | 46% | 1021 hPa | 0 mm | - | 0 W/m² | - |
| 1787391999 | 30.56° C | 46% | 1021 hPa | 0 mm | - | 0 W/m² | - |
| 1787391699 | 30.56° C | 48% | 1021 hPa | 0 mm | - | 0 W/m² | - |
| 1787391399 | 30° C | 49% | 1021 hPa | 0 mm | - | 0 W/m² | - |
| 1787391099 | 30.56° C | 48% | 1021 hPa | 0 mm | - | 0 W/m² | - |
| 1787390800 | 30.56° C | 48% | 1021 hPa | 0 mm | - | 0 W/m² | - |
| 1787390499 | 29.44° C | 51% | 1021 hPa | 0 mm | - | 0 W/m² | - |
| 1787390199 | 29.44° C | 49% | 1021 hPa | 0 mm | - | 0 W/m² | - |
| 1787389899 | 30° C | 49% | 1021 hPa | 0 mm | - | 0 W/m² | - |
| 1787389600 | 30° C | 50% | 1021 hPa | 0 mm | - | 0 W/m² | - |
| 1787389575 | 30° C | 50% | 1021.4 hPa | 0 mm | - | 0 W/m² | - |
| 1787389548 | 30° C | 49% | 1021 hPa | 0 mm | - | 0 W/m² | - |
| 1787389247 | 29.44° C | 51% | 1021.4 hPa | 0 mm | - | 0 W/m² | - |
* Rain latest hour (hover to see other rain measurements)
** Current wind speed in m/s (hover to see current wind gust speed)